全部
Billabong Stn Airport YBST 天氣
There is no TAF data available at YBST or any nearby airports.
There is no METAR data available at YBST. Showing METAR data for YWWL (23 mi SW).
WWY近期METAR歷史資料(YBST無資料)
| Date | Time (AEST) | Flight Rules | Wind Dir. | Speed | Type | Height AGL (ft) | Visibility | Temp (°C) | Temp (°F) | Dew Point (°C) | Dew Point (°F) | Rel. Humid. | Pressure | Density Altitude | Remarks |
|---|---|---|---|---|---|---|---|---|---|---|---|---|---|---|---|
| 06-五月 | 09:00 | n/a | 210° | 4 kt | Missing | 12° | 53° | 10° | 50° | 88% | 1022 mb | 239 ft | |||
| 06-五月 | 08:00 | n/a | 170° | 4 kt | Missing | 8° | 46° | 8° | 46° | 100% | 1022 mb | -241 ft | |||
| 06-五月 | 07:00 | n/a | 230° | 3 kt | Missing | 5° | 41° | 4° | 39° | 93% | 1022 mb | -601 ft | |||
| 06-五月 | 06:00 | n/a | 240° | 5 kt | Missing | 6° | 42° | 5° | 41° | 93% | 1022 mb | -481 ft | |||
| 06-五月 | 05:00 | n/a | Calm | Missing | 5° | 41° | 5° | 41° | 100% | 1022 mb | -601 ft | ||||
| 06-五月 | 04:00 | n/a | 250° | 4 kt | Missing | 5° | 41° | 5° | 41° | 100% | 1021 mb | -571 ft | |||
| 06-五月 | 03:00 | n/a | 240° | 4 kt | Missing | 5° | 41° | 5° | 41° | 100% | 1022 mb | -601 ft | |||
| 06-五月 | 02:00 | n/a | Calm | Missing | 6° | 42° | 5° | 41° | 93% | 1022 mb | -481 ft | ||||
| 06-五月 | 01:00 | n/a | Calm | Missing | 7° | 44° | 7° | 44° | 100% | 1022 mb | -361 ft | ||||
| 06-五月 | 00:00 | n/a | 230° | 5 kt | Missing | 7° | 44° | 6° | 42° | 93% | 1022 mb | -361 ft | |||
| 05-五月 | 23:00 | n/a | 260° | 4 kt | Missing | 7° | 44° | 7° | 44° | 100% | 1023 mb | -390 ft | |||
| 05-五月 | 22:00 | n/a | Calm | Missing | 8° | 46° | 7° | 44° | 93% | 1023 mb | -270 ft | ||||
| 05-五月 | 21:00 | n/a | 250° | 1 kt | Missing | 11° | 51° | 9° | 48° | 87% | 1023 mb | 90 ft | |||
| 05-五月 | 20:00 | n/a | 190° | 5 kt | Missing | 12° | 53° | 9° | 48° | 82% | 1023 mb | 210 ft | |||
| 05-五月 | 19:00 | n/a | 240° | 4 kt | Missing | 11° | 51° | 8° | 46° | 82% | 1022 mb | 119 ft | |||
| 05-五月 | 18:00 | n/a | 250° | 3 kt | Missing | 13° | 55° | 8° | 46° | 72% | 1022 mb | 359 ft | |||
| 05-五月 | 17:00 | n/a | 240° | 8 kt | Missing | 16° | 60° | 7° | 44° | 55% | 1021 mb | 749 ft | |||
| 05-五月 | 16:00 | n/a | 250° | 7 kt | Missing | 17° | 62° | 7° | 44° | 52% | 1021 mb | 869 ft | |||
| 05-五月 | 15:00 | n/a | 240° | 7 kt | Missing | 19° | 66° | 6° | 42° | 43% | 1020 mb | 1,138 ft | |||
| 05-五月 | 14:00 | n/a | 230° | 4 kt | Missing | 18° | 64° | 7° | 44° | 49% | 1020 mb | 1,018 ft | |||
| 05-五月 | 13:00 | n/a | 220° | 7 kt | Missing | 18° | 64° | 7° | 44° | 49% | 1021 mb | 989 ft | |||
| 05-五月 | 12:00 | n/a | 210° | 9 kt | Missing | 17° | 62° | 8° | 46° | 55% | 1021 mb | 869 ft | |||
| 05-五月 | 11:00 | n/a | 250° | 7 kt | Missing | 17° | 62° | 9° | 48° | 59% | 1022 mb | 839 ft | |||
| 05-五月 | 10:00 | n/a | 190° | 6 kt | Missing | 15° | 59° | 10° | 50° | 72% | 1022 mb | 599 ft |
登入
| 您的瀏覽器不支援. 升級您的瀏覽器 |
